Decoded Metar for LTFJ (SABIHA GOKCEN in TURKEY) (IATA:N/A) | Meteo·Mobile Aviation Weather
aviador You're here:

LTFJ Decoded Metar

SABIHA GOKCEN in TURKEY
Report Time2019-03-25 13:20:00
UTC Time2019-03-25 13:50:43
Flight Rules vfr VFR
Wind230° at 08 kt
W.Decomp.*RWY 24: 7.8 kt HW 1.9 kt LCW
W.Rank230° ranks 7
Current wind is above 230° avg. (7.5)
Visibility9999 m
Phenomena:N/A
Clouds:N/A
Expected CloudBase > 5,600 ft AGL from Temp-Dew spread
CeilingNone
Temp14°C (ISA -0)
Dew Point00°C (39% RH)
AAT9.2°C
QNH1012 hPa
Density Alt400 ft
Elevation322 ft
Report Wrong Elevation
Raw Report
LTFJ 251320Z 23008KT CAVOK 14/00 Q1012 NOSIG=

Extra information for LTFJ:More info

Metar Taf Metar & Taf Last 4 Metars F.Rules Stats Wind Profile Meteogram Temp Stats Airport Information Weather charts Add Link Nearby VenuesMetar ALERT Operation Metar Decoded Social comments